sensor_id;sensor_type;location;lat;lon;timestamp;P1;durP1;ratioP1;P2;durP2;ratioP2
75220;SDS011;63802;53.232;6.570;2024-02-23T00:02:16;2.67;;;0.60;;
75220;SDS011;63802;53.232;6.570;2024-02-23T00:04:42;1.45;;;0.52;;
75220;SDS011;63802;53.232;6.570;2024-02-23T00:07:07;5.57;;;1.00;;
75220;SDS011;63802;53.232;6.570;2024-02-23T00:09:33;4.82;;;0.80;;
75220;SDS011;63802;53.232;6.570;2024-02-23T00:11:58;4.28;;;0.73;;
75220;SDS011;63802;53.232;6.570;2024-02-23T00:14:24;5.78;;;1.00;;
75220;SDS011;63802;53.232;6.570;2024-02-23T00:16:49;2.35;;;0.80;;
75220;SDS011;63802;53.232;6.570;2024-02-23T00:19:15;6.30;;;1.33;;
75220;SDS011;63802;53.232;6.570;2024-02-23T00:21:43;5.28;;;1.20;;
75220;SDS011;63802;53.232;6.570;2024-02-23T00:24:12;4.57;;;0.88;;
75220;SDS011;63802;53.232;6.570;2024-02-23T00:26:38;1.60;;;0.50;;
75220;SDS011;63802;53.232;6.570;2024-02-23T00:29:03;2.63;;;0.63;;
75220;SDS011;63802;53.232;6.570;2024-02-23T00:31:29;1.30;;;0.40;;
75220;SDS011;63802;53.232;6.570;2024-02-23T00:33:54;3.55;;;0.98;;
75220;SDS011;63802;53.232;6.570;2024-02-23T00:36:20;1.30;;;0.60;;
75220;SDS011;63802;53.232;6.570;2024-02-23T00:38:45;3.67;;;0.70;;
75220;SDS011;63802;53.232;6.570;2024-02-23T00:41:10;5.30;;;0.98;;
75220;SDS011;63802;53.232;6.570;2024-02-23T00:43:39;3.58;;;1.10;;
75220;SDS011;63802;53.232;6.570;2024-02-23T00:46:05;9.15;;;1.52;;
75220;SDS011;63802;53.232;6.570;2024-02-23T00:48:31;5.50;;;0.80;;
75220;SDS011;63802;53.232;6.570;2024-02-23T00:50:57;8.88;;;1.05;;
75220;SDS011;63802;53.232;6.570;2024-02-23T00:53:23;4.22;;;0.80;;
75220;SDS011;63802;53.232;6.570;2024-02-23T00:55:49;3.53;;;0.82;;
75220;SDS011;63802;53.232;6.570;2024-02-23T00:58:14;5.30;;;1.05;;
75220;SDS011;63802;53.232;6.570;2024-02-23T01:00:40;3.40;;;0.75;;
75220;SDS011;63802;53.232;6.570;2024-02-23T01:03:06;4.07;;;0.70;;
75220;SDS011;63802;53.232;6.570;2024-02-23T01:05:32;1.98;;;0.98;;
75220;SDS011;63802;53.232;6.570;2024-02-23T01:07:58;2.35;;;0.98;;
75220;SDS011;63802;53.232;6.570;2024-02-23T01:10:23;1.98;;;1.15;;
75220;SDS011;63802;53.232;6.570;2024-02-23T01:12:49;3.13;;;0.98;;
75220;SDS011;63802;53.232;6.570;2024-02-23T01:15:14;7.65;;;1.88;;
75220;SDS011;63802;53.232;6.570;2024-02-23T01:17:40;3.90;;;1.02;;
75220;SDS011;63802;53.232;6.570;2024-02-23T01:20:05;7.60;;;1.20;;
75220;SDS011;63802;53.232;6.570;2024-02-23T01:22:31;5.45;;;1.40;;
75220;SDS011;63802;53.232;6.570;2024-02-23T01:24:56;5.80;;;1.27;;
75220;SDS011;63802;53.232;6.570;2024-02-23T01:27:22;6.50;;;1.40;;
75220;SDS011;63802;53.232;6.570;2024-02-23T01:29:47;6.88;;;1.30;;
75220;SDS011;63802;53.232;6.570;2024-02-23T01:32:13;4.20;;;0.80;;
75220;SDS011;63802;53.232;6.570;2024-02-23T01:34:38;5.43;;;1.15;;
75220;SDS011;63802;53.232;6.570;2024-02-23T01:37:04;4.55;;;1.40;;
75220;SDS011;63802;53.232;6.570;2024-02-23T01:39:29;6.65;;;1.25;;
75220;SDS011;63802;53.232;6.570;2024-02-23T01:41:55;6.03;;;1.85;;
75220;SDS011;63802;53.232;6.570;2024-02-23T01:44:20;5.15;;;1.13;;
75220;SDS011;63802;53.232;6.570;2024-02-23T01:46:49;2.45;;;1.00;;
75220;SDS011;63802;53.232;6.570;2024-02-23T01:49:16;7.90;;;1.55;;
75220;SDS011;63802;53.232;6.570;2024-02-23T01:51:41;9.05;;;1.55;;
75220;SDS011;63802;53.232;6.570;2024-02-23T01:54:07;5.68;;;1.70;;
75220;SDS011;63802;53.232;6.570;2024-02-23T01:56:34;5.88;;;1.30;;
75220;SDS011;63802;53.232;6.570;2024-02-23T01:59:02;5.72;;;1.35;;
75220;SDS011;63802;53.232;6.570;2024-02-23T02:01:28;7.50;;;1.58;;
75220;SDS011;63802;53.232;6.570;2024-02-23T02:03:55;13.90;;;1.70;;
75220;SDS011;63802;53.232;6.570;2024-02-23T02:06:21;6.57;;;1.35;;
75220;SDS011;63802;53.232;6.570;2024-02-23T02:08:47;8.85;;;1.52;;
75220;SDS011;63802;53.232;6.570;2024-02-23T02:11:13;10.10;;;1.50;;
75220;SDS011;63802;53.232;6.570;2024-02-23T02:13:39;6.07;;;1.67;;
75220;SDS011;63802;53.232;6.570;2024-02-23T02:16:04;7.47;;;1.60;;
75220;SDS011;63802;53.232;6.570;2024-02-23T02:18:30;9.98;;;2.20;;
75220;SDS011;63802;53.232;6.570;2024-02-23T02:20:56;6.53;;;1.40;;
75220;SDS011;63802;53.232;6.570;2024-02-23T02:23:22;12.20;;;2.42;;
75220;SDS011;63802;53.232;6.570;2024-02-23T02:25:52;11.30;;;1.60;;
75220;SDS011;63802;53.232;6.570;2024-02-23T02:28:22;16.67;;;1.77;;
75220;SDS011;63802;53.232;6.570;2024-02-23T02:30:48;9.25;;;2.15;;
75220;SDS011;63802;53.232;6.570;2024-02-23T02:33:14;5.47;;;2.33;;
75220;SDS011;63802;53.232;6.570;2024-02-23T02:35:39;10.93;;;1.88;;
75220;SDS011;63802;53.232;6.570;2024-02-23T02:38:05;8.13;;;1.55;;
75220;SDS011;63802;53.232;6.570;2024-02-23T02:40:30;9.15;;;2.00;;
75220;SDS011;63802;53.232;6.570;2024-02-23T02:42:56;5.00;;;1.40;;
75220;SDS011;63802;53.232;6.570;2024-02-23T02:45:22;6.47;;;1.77;;
75220;SDS011;63802;53.232;6.570;2024-02-23T02:47:48;10.88;;;1.48;;
75220;SDS011;63802;53.232;6.570;2024-02-23T02:50:14;2.50;;;1.55;;
75220;SDS011;63802;53.232;6.570;2024-02-23T02:52:40;9.57;;;2.15;;
75220;SDS011;63802;53.232;6.570;2024-02-23T02:55:05;8.70;;;1.73;;
75220;SDS011;63802;53.232;6.570;2024-02-23T02:57:31;7.05;;;1.95;;
75220;SDS011;63802;53.232;6.570;2024-02-23T02:59:56;5.65;;;1.55;;
75220;SDS011;63802;53.232;6.570;2024-02-23T03:02:22;6.82;;;2.13;;
75220;SDS011;63802;53.232;6.570;2024-02-23T03:04:50;10.25;;;1.80;;
75220;SDS011;63802;53.232;6.570;2024-02-23T03:07:16;8.57;;;1.80;;
75220;SDS011;63802;53.232;6.570;2024-02-23T03:09:41;8.82;;;1.98;;
75220;SDS011;63802;53.232;6.570;2024-02-23T03:12:07;17.92;;;2.03;;
75220;SDS011;63802;53.232;6.570;2024-02-23T03:14:33;5.55;;;1.13;;
75220;SDS011;63802;53.232;6.570;2024-02-23T03:16:58;10.40;;;1.75;;
75220;SDS011;63802;53.232;6.570;2024-02-23T03:19:24;13.32;;;2.17;;
75220;SDS011;63802;53.232;6.570;2024-02-23T03:21:50;5.22;;;1.75;;
75220;SDS011;63802;53.232;6.570;2024-02-23T03:24:16;8.32;;;1.83;;
75220;SDS011;63802;53.232;6.570;2024-02-23T03:26:42;4.28;;;1.58;;
75220;SDS011;63802;53.232;6.570;2024-02-23T03:29:07;6.97;;;1.55;;
75220;SDS011;63802;53.232;6.570;2024-02-23T03:31:34;6.63;;;1.70;;
75220;SDS011;63802;53.232;6.570;2024-02-23T03:33:59;10.57;;;1.90;;
75220;SDS011;63802;53.232;6.570;2024-02-23T03:36:25;4.43;;;1.92;;
75220;SDS011;63802;53.232;6.570;2024-02-23T03:38:51;6.60;;;1.42;;
75220;SDS011;63802;53.232;6.570;2024-02-23T03:41:17;5.15;;;1.60;;
75220;SDS011;63802;53.232;6.570;2024-02-23T03:43:42;6.18;;;1.25;;
75220;SDS011;63802;53.232;6.570;2024-02-23T03:46:08;5.90;;;1.30;;
75220;SDS011;63802;53.232;6.570;2024-02-23T03:48:34;8.70;;;1.13;;
75220;SDS011;63802;53.232;6.570;2024-02-23T03:50:59;4.53;;;1.35;;
75220;SDS011;63802;53.232;6.570;2024-02-23T03:53:25;5.40;;;1.15;;
75220;SDS011;63802;53.232;6.570;2024-02-23T03:55:50;5.47;;;1.42;;
75220;SDS011;63802;53.232;6.570;2024-02-23T03:58:16;9.00;;;1.73;;
75220;SDS011;63802;53.232;6.570;2024-02-23T04:00:43;11.23;;;1.42;;
75220;SDS011;63802;53.232;6.570;2024-02-23T04:03:08;9.77;;;1.60;;
75220;SDS011;63802;53.232;6.570;2024-02-23T04:05:35;3.78;;;1.35;;
75220;SDS011;63802;53.232;6.570;2024-02-23T04:08:00;5.57;;;1.70;;
75220;SDS011;63802;53.232;6.570;2024-02-23T04:10:29;3.50;;;1.10;;
75220;SDS011;63802;53.232;6.570;2024-02-23T04:12:54;7.38;;;1.20;;
75220;SDS011;63802;53.232;6.570;2024-02-23T04:15:22;13.02;;;1.65;;
75220;SDS011;63802;53.232;6.570;2024-02-23T04:17:48;9.52;;;1.73;;
75220;SDS011;63802;53.232;6.570;2024-02-23T04:20:13;8.93;;;1.60;;
75220;SDS011;63802;53.232;6.570;2024-02-23T04:22:39;9.70;;;1.70;;
75220;SDS011;63802;53.232;6.570;2024-02-23T04:25:05;7.10;;;1.23;;
75220;SDS011;63802;53.232;6.570;2024-02-23T04:27:30;4.78;;;0.70;;
75220;SDS011;63802;53.232;6.570;2024-02-23T04:29:56;5.82;;;1.30;;
75220;SDS011;63802;53.232;6.570;2024-02-23T04:32:21;8.63;;;1.58;;
75220;SDS011;63802;53.232;6.570;2024-02-23T04:34:47;8.43;;;1.45;;
75220;SDS011;63802;53.232;6.570;2024-02-23T04:37:12;4.60;;;1.10;;
75220;SDS011;63802;53.232;6.570;2024-02-23T04:39:38;2.15;;;1.23;;
75220;SDS011;63802;53.232;6.570;2024-02-23T04:42:06;4.47;;;1.23;;
75220;SDS011;63802;53.232;6.570;2024-02-23T04:44:33;11.63;;;1.30;;
75220;SDS011;63802;53.232;6.570;2024-02-23T04:46:59;8.02;;;1.60;;
75220;SDS011;63802;53.232;6.570;2024-02-23T04:49:25;7.50;;;1.40;;
75220;SDS011;63802;53.232;6.570;2024-02-23T04:51:50;5.22;;;0.85;;
75220;SDS011;63802;53.232;6.570;2024-02-23T04:54:16;2.17;;;0.80;;
75220;SDS011;63802;53.232;6.570;2024-02-23T04:56:42;10.60;;;1.40;;
75220;SDS011;63802;53.232;6.570;2024-02-23T04:59:07;6.47;;;1.73;;
75220;SDS011;63802;53.232;6.570;2024-02-23T05:01:36;4.55;;;1.02;;
75220;SDS011;63802;53.232;6.570;2024-02-23T05:04:02;6.35;;;1.10;;
75220;SDS011;63802;53.232;6.570;2024-02-23T05:06:28;7.38;;;1.13;;
75220;SDS011;63802;53.232;6.570;2024-02-23T05:08:54;6.63;;;1.48;;
75220;SDS011;63802;53.232;6.570;2024-02-23T05:11:20;7.88;;;1.48;;
75220;SDS011;63802;53.232;6.570;2024-02-23T05:13:45;7.75;;;1.63;;
75220;SDS011;63802;53.232;6.570;2024-02-23T05:16:10;1.50;;;1.00;;
75220;SDS011;63802;53.232;6.570;2024-02-23T05:18:38;11.05;;;1.40;;
75220;SDS011;63802;53.232;6.570;2024-02-23T05:21:03;5.95;;;2.10;;
75220;SDS011;63802;53.232;6.570;2024-02-23T05:23:30;8.65;;;1.23;;
75220;SDS011;63802;53.232;6.570;2024-02-23T05:25:56;2.60;;;0.90;;
75220;SDS011;63802;53.232;6.570;2024-02-23T05:28:21;6.93;;;1.55;;
75220;SDS011;63802;53.232;6.570;2024-02-23T05:30:46;8.70;;;1.23;;
75220;SDS011;63802;53.232;6.570;2024-02-23T05:33:12;9.13;;;1.02;;
75220;SDS011;63802;53.232;6.570;2024-02-23T05:35:37;7.45;;;1.50;;
75220;SDS011;63802;53.232;6.570;2024-02-23T05:38:06;4.07;;;1.42;;
75220;SDS011;63802;53.232;6.570;2024-02-23T05:40:31;13.02;;;1.55;;
75220;SDS011;63802;53.232;6.570;2024-02-23T05:43:00;1.95;;;0.93;;
75220;SDS011;63802;53.232;6.570;2024-02-23T05:45:28;9.68;;;1.50;;
75220;SDS011;63802;53.232;6.570;2024-02-23T05:47:53;6.13;;;1.20;;
75220;SDS011;63802;53.232;6.570;2024-02-23T05:50:19;7.53;;;1.70;;
75220;SDS011;63802;53.232;6.570;2024-02-23T05:52:45;14.13;;;1.30;;
75220;SDS011;63802;53.232;6.570;2024-02-23T05:55:10;5.88;;;1.05;;
75220;SDS011;63802;53.232;6.570;2024-02-23T05:57:35;2.80;;;1.02;;
75220;SDS011;63802;53.232;6.570;2024-02-23T06:00:01;3.05;;;1.08;;
75220;SDS011;63802;53.232;6.570;2024-02-23T06:02:26;7.10;;;1.70;;
75220;SDS011;63802;53.232;6.570;2024-02-23T06:04:52;10.18;;;2.00;;
75220;SDS011;63802;53.232;6.570;2024-02-23T06:07:17;4.63;;;1.80;;
75220;SDS011;63802;53.232;6.570;2024-02-23T06:09:44;11.45;;;2.08;;
75220;SDS011;63802;53.232;6.570;2024-02-23T06:12:09;11.73;;;2.60;;
75220;SDS011;63802;53.232;6.570;2024-02-23T06:14:35;9.93;;;2.55;;
75220;SDS011;63802;53.232;6.570;2024-02-23T06:17:00;6.88;;;2.67;;
75220;SDS011;63802;53.232;6.570;2024-02-23T06:19:26;12.05;;;3.00;;
75220;SDS011;63802;53.232;6.570;2024-02-23T06:21:51;7.95;;;3.33;;
75220;SDS011;63802;53.232;6.570;2024-02-23T06:24:17;11.52;;;3.58;;
75220;SDS011;63802;53.232;6.570;2024-02-23T06:26:43;8.85;;;3.50;;
75220;SDS011;63802;53.232;6.570;2024-02-23T06:29:10;9.63;;;3.25;;
75220;SDS011;63802;53.232;6.570;2024-02-23T06:31:36;10.93;;;4.03;;
75220;SDS011;63802;53.232;6.570;2024-02-23T06:34:03;8.25;;;3.58;;
75220;SDS011;63802;53.232;6.570;2024-02-23T06:36:29;10.90;;;4.38;;
75220;SDS011;63802;53.232;6.570;2024-02-23T06:38:54;18.30;;;3.72;;
75220;SDS011;63802;53.232;6.570;2024-02-23T06:41:19;9.75;;;4.07;;
75220;SDS011;63802;53.232;6.570;2024-02-23T06:43:45;10.35;;;4.03;;
75220;SDS011;63802;53.232;6.570;2024-02-23T06:46:11;11.13;;;3.80;;
75220;SDS011;63802;53.232;6.570;2024-02-23T06:48:36;9.77;;;3.00;;
75220;SDS011;63802;53.232;6.570;2024-02-23T06:51:03;10.70;;;3.75;;
75220;SDS011;63802;53.232;6.570;2024-02-23T06:53:34;8.02;;;3.38;;
75220;SDS011;63802;53.232;6.570;2024-02-23T06:56:00;14.65;;;4.35;;
75220;SDS011;63802;53.232;6.570;2024-02-23T06:58:26;12.88;;;3.70;;
75220;SDS011;63802;53.232;6.570;2024-02-23T07:00:52;13.45;;;4.40;;
75220;SDS011;63802;53.232;6.570;2024-02-23T07:03:17;14.13;;;3.58;;
75220;SDS011;63802;53.232;6.570;2024-02-23T07:05:43;9.60;;;3.80;;
75220;SDS011;63802;53.232;6.570;2024-02-23T07:08:10;9.50;;;4.07;;
75220;SDS011;63802;53.232;6.570;2024-02-23T07:10:35;17.30;;;4.30;;
75220;SDS011;63802;53.232;6.570;2024-02-23T07:13:01;14.30;;;3.92;;
75220;SDS011;63802;53.232;6.570;2024-02-23T07:15:26;13.00;;;4.22;;
75220;SDS011;63802;53.232;6.570;2024-02-23T07:17:52;12.80;;;4.53;;
75220;SDS011;63802;53.232;6.570;2024-02-23T07:20:17;12.60;;;4.65;;
75220;SDS011;63802;53.232;6.570;2024-02-23T07:22:46;13.85;;;4.28;;
75220;SDS011;63802;53.232;6.570;2024-02-23T07:25:15;13.27;;;4.78;;
75220;SDS011;63802;53.232;6.570;2024-02-23T07:27:47;10.63;;;4.72;;
75220;SDS011;63802;53.232;6.570;2024-02-23T07:30:16;12.37;;;4.10;;
75220;SDS011;63802;53.232;6.570;2024-02-23T07:32:42;11.90;;;4.63;;
75220;SDS011;63802;53.232;6.570;2024-02-23T07:35:13;8.82;;;4.30;;
75220;SDS011;63802;53.232;6.570;2024-02-23T07:37:39;13.77;;;3.97;;
75220;SDS011;63802;53.232;6.570;2024-02-23T07:40:05;11.10;;;4.53;;
75220;SDS011;63802;53.232;6.570;2024-02-23T07:42:31;13.57;;;4.07;;
75220;SDS011;63802;53.232;6.570;2024-02-23T07:44:57;15.50;;;4.28;;
75220;SDS011;63802;53.232;6.570;2024-02-23T07:47:23;9.45;;;3.83;;
75220;SDS011;63802;53.232;6.570;2024-02-23T07:49:49;11.18;;;4.25;;
75220;SDS011;63802;53.232;6.570;2024-02-23T07:52:15;14.27;;;4.45;;
75220;SDS011;63802;53.232;6.570;2024-02-23T07:54:40;14.93;;;4.28;;
75220;SDS011;63802;53.232;6.570;2024-02-23T07:57:06;10.32;;;3.35;;
75220;SDS011;63802;53.232;6.570;2024-02-23T07:59:32;9.60;;;3.53;;
75220;SDS011;63802;53.232;6.570;2024-02-23T08:01:58;13.85;;;4.00;;
75220;SDS011;63802;53.232;6.570;2024-02-23T08:04:24;9.55;;;3.30;;
75220;SDS011;63802;53.232;6.570;2024-02-23T08:06:50;10.57;;;3.33;;
75220;SDS011;63802;53.232;6.570;2024-02-23T08:09:16;11.35;;;3.60;;
75220;SDS011;63802;53.232;6.570;2024-02-23T08:11:42;11.68;;;3.03;;
75220;SDS011;63802;53.232;6.570;2024-02-23T08:14:08;17.00;;;3.83;;
75220;SDS011;63802;53.232;6.570;2024-02-23T08:16:33;9.15;;;3.17;;
75220;SDS011;63802;53.232;6.570;2024-02-23T08:18:59;8.10;;;3.05;;
75220;SDS011;63802;53.232;6.570;2024-02-23T08:21:25;6.30;;;2.90;;
75220;SDS011;63802;53.232;6.570;2024-02-23T08:23:54;10.15;;;3.53;;
75220;SDS011;63802;53.232;6.570;2024-02-23T08:26:19;7.72;;;3.20;;
75220;SDS011;63802;53.232;6.570;2024-02-23T08:28:45;5.82;;;3.22;;
75220;SDS011;63802;53.232;6.570;2024-02-23T08:31:10;7.10;;;2.90;;
75220;SDS011;63802;53.232;6.570;2024-02-23T08:33:36;7.55;;;2.97;;
75220;SDS011;63802;53.232;6.570;2024-02-23T08:36:01;5.07;;;2.53;;
75220;SDS011;63802;53.232;6.570;2024-02-23T08:38:30;5.57;;;2.88;;
75220;SDS011;63802;53.232;6.570;2024-02-23T08:40:56;6.40;;;2.45;;
75220;SDS011;63802;53.232;6.570;2024-02-23T08:43:23;6.30;;;2.70;;
75220;SDS011;63802;53.232;6.570;2024-02-23T08:45:48;7.55;;;2.38;;
75220;SDS011;63802;53.232;6.570;2024-02-23T08:48:14;6.30;;;2.33;;
75220;SDS011;63802;53.232;6.570;2024-02-23T08:50:40;5.10;;;2.75;;
75220;SDS011;63802;53.232;6.570;2024-02-23T08:53:06;8.20;;;2.55;;
75220;SDS011;63802;53.232;6.570;2024-02-23T08:55:32;5.55;;;2.10;;
75220;SDS011;63802;53.232;6.570;2024-02-23T08:57:58;5.93;;;2.08;;
75220;SDS011;63802;53.232;6.570;2024-02-23T09:00:24;4.45;;;1.92;;
75220;SDS011;63802;53.232;6.570;2024-02-23T09:02:49;6.72;;;2.03;;
75220;SDS011;63802;53.232;6.570;2024-02-23T09:05:15;5.18;;;1.75;;
75220;SDS011;63802;53.232;6.570;2024-02-23T09:07:41;5.15;;;1.80;;
75220;SDS011;63802;53.232;6.570;2024-02-23T09:10:07;5.35;;;1.90;;
75220;SDS011;63802;53.232;6.570;2024-02-23T09:12:33;5.05;;;2.28;;
75220;SDS011;63802;53.232;6.570;2024-02-23T09:14:59;4.68;;;1.95;;
75220;SDS011;63802;53.232;6.570;2024-02-23T09:17:24;7.57;;;1.98;;
75220;SDS011;63802;53.232;6.570;2024-02-23T09:19:50;5.72;;;1.80;;
75220;SDS011;63802;53.232;6.570;2024-02-23T09:22:16;5.55;;;1.42;;
75220;SDS011;63802;53.232;6.570;2024-02-23T09:24:41;6.75;;;2.10;;
75220;SDS011;63802;53.232;6.570;2024-02-23T09:27:07;4.60;;;1.35;;
75220;SDS011;63802;53.232;6.570;2024-02-23T09:29:33;5.05;;;1.90;;
75220;SDS011;63802;53.232;6.570;2024-02-23T09:31:59;6.15;;;1.80;;
75220;SDS011;63802;53.232;6.570;2024-02-23T09:34:25;3.58;;;1.75;;
75220;SDS011;63802;53.232;6.570;2024-02-23T09:36:50;3.72;;;1.70;;
75220;SDS011;63802;53.232;6.570;2024-02-23T09:39:16;5.38;;;1.80;;
75220;SDS011;63802;53.232;6.570;2024-02-23T09:41:42;2.75;;;1.52;;
75220;SDS011;63802;53.232;6.570;2024-02-23T09:44:08;7.03;;;1.83;;
75220;SDS011;63802;53.232;6.570;2024-02-23T09:46:34;1.67;;;1.30;;
75220;SDS011;63802;53.232;6.570;2024-02-23T09:49:01;5.90;;;1.85;;
75220;SDS011;63802;53.232;6.570;2024-02-23T09:51:28;5.10;;;1.70;;
75220;SDS011;63802;53.232;6.570;2024-02-23T09:53:55;2.35;;;1.30;;
75220;SDS011;63802;53.232;6.570;2024-02-23T09:56:22;2.13;;;1.42;;
75220;SDS011;63802;53.232;6.570;2024-02-23T09:58:52;4.43;;;1.55;;
75220;SDS011;63802;53.232;6.570;2024-02-23T10:01:21;3.40;;;1.27;;
75220;SDS011;63802;53.232;6.570;2024-02-23T10:03:52;3.67;;;1.13;;
75220;SDS011;63802;53.232;6.570;2024-02-23T10:06:26;3.35;;;1.40;;
75220;SDS011;63802;53.232;6.570;2024-02-23T10:08:52;4.95;;;1.35;;
75220;SDS011;63802;53.232;6.570;2024-02-23T10:11:25;3.20;;;1.20;;
75220;SDS011;63802;53.232;6.570;2024-02-23T10:13:51;2.83;;;1.13;;
75220;SDS011;63802;53.232;6.570;2024-02-23T10:16:17;4.93;;;1.25;;
75220;SDS011;63802;53.232;6.570;2024-02-23T10:18:49;1.83;;;1.10;;
75220;SDS011;63802;53.232;6.570;2024-02-23T10:21:17;6.20;;;1.27;;
75220;SDS011;63802;53.232;6.570;2024-02-23T10:23:48;1.98;;;0.95;;
75220;SDS011;63802;53.232;6.570;2024-02-23T10:28:44;4.18;;;1.10;;
75220;SDS011;63802;53.232;6.570;2024-02-23T10:31:11;9.10;;;1.50;;
75220;SDS011;63802;53.232;6.570;2024-02-23T10:33:40;5.65;;;1.58;;
75220;SDS011;63802;53.232;6.570;2024-02-23T10:36:06;4.45;;;1.23;;
75220;SDS011;63802;53.232;6.570;2024-02-23T10:38:36;5.25;;;1.33;;
75220;SDS011;63802;53.232;6.570;2024-02-23T10:41:05;3.20;;;1.15;;
75220;SDS011;63802;53.232;6.570;2024-02-23T10:43:36;3.28;;;1.45;;
75220;SDS011;63802;53.232;6.570;2024-02-23T10:46:09;3.83;;;1.15;;
75220;SDS011;63802;53.232;6.570;2024-02-23T10:48:38;8.48;;;1.70;;
75220;SDS011;63802;53.232;6.570;2024-02-23T10:51:06;4.15;;;1.10;;
75220;SDS011;63802;53.232;6.570;2024-02-23T10:53:33;3.50;;;1.48;;
75220;SDS011;63802;53.232;6.570;2024-02-23T10:56:00;8.38;;;1.63;;
75220;SDS011;63802;53.232;6.570;2024-02-23T10:58:26;3.63;;;1.10;;
75220;SDS011;63802;53.232;6.570;2024-02-23T11:00:52;4.40;;;1.30;;
75220;SDS011;63802;53.232;6.570;2024-02-23T11:03:25;6.50;;;1.23;;
75220;SDS011;63802;53.232;6.570;2024-02-23T11:05:55;2.78;;;1.77;;
75220;SDS011;63802;53.232;6.570;2024-02-23T11:08:20;2.08;;;0.93;;
75220;SDS011;63802;53.232;6.570;2024-02-23T11:10:49;5.32;;;1.33;;
75220;SDS011;63802;53.232;6.570;2024-02-23T11:13:29;5.43;;;1.10;;
75220;SDS011;63802;53.232;6.570;2024-02-23T11:16:06;1.70;;;1.17;;
75220;SDS011;63802;53.232;6.570;2024-02-23T11:18:34;4.03;;;1.30;;
75220;SDS011;63802;53.232;6.570;2024-02-23T11:21:01;5.47;;;1.33;;
75220;SDS011;63802;53.232;6.570;2024-02-23T11:23:42;4.63;;;1.40;;
75220;SDS011;63802;53.232;6.570;2024-02-23T11:26:16;5.68;;;1.10;;
75220;SDS011;63802;53.232;6.570;2024-02-23T11:28:51;6.43;;;1.42;;
75220;SDS011;63802;53.232;6.570;2024-02-23T11:31:20;5.10;;;1.27;;
75220;SDS011;63802;53.232;6.570;2024-02-23T11:38:56;3.65;;;1.20;;
75220;SDS011;63802;53.232;6.570;2024-02-23T11:41:23;4.53;;;1.08;;
75220;SDS011;63802;53.232;6.570;2024-02-23T11:43:50;5.43;;;1.58;;
75220;SDS011;63802;53.232;6.570;2024-02-23T11:46:16;4.95;;;1.30;;
75220;SDS011;63802;53.232;6.570;2024-02-23T11:48:42;3.90;;;1.30;;
75220;SDS011;63802;53.232;6.570;2024-02-23T11:51:13;2.67;;;1.20;;
75220;SDS011;63802;53.232;6.570;2024-02-23T11:53:40;5.63;;;1.13;;
75220;SDS011;63802;53.232;6.570;2024-02-23T11:56:06;6.13;;;1.38;;
75220;SDS011;63802;53.232;6.570;2024-02-23T11:58:32;3.15;;;1.30;;
75220;SDS011;63802;53.232;6.570;2024-02-23T12:00:59;3.65;;;1.40;;
75220;SDS011;63802;53.232;6.570;2024-02-23T12:03:28;3.22;;;1.10;;
75220;SDS011;63802;53.232;6.570;2024-02-23T12:05:58;4.72;;;1.00;;
75220;SDS011;63802;53.232;6.570;2024-02-23T12:08:25;2.30;;;1.33;;
75220;SDS011;63802;53.232;6.570;2024-02-23T12:10:55;2.92;;;1.10;;
75220;SDS011;63802;53.232;6.570;2024-02-23T12:13:21;1.70;;;0.85;;
75220;SDS011;63802;53.232;6.570;2024-02-23T12:15:47;7.03;;;1.15;;
75220;SDS011;63802;53.232;6.570;2024-02-23T12:18:13;7.43;;;1.30;;
75220;SDS011;63802;53.232;6.570;2024-02-23T12:20:39;4.45;;;1.48;;
75220;SDS011;63802;53.232;6.570;2024-02-23T12:23:05;4.10;;;0.95;;
75220;SDS011;63802;53.232;6.570;2024-02-23T12:25:33;4.53;;;1.42;;
75220;SDS011;63802;53.232;6.570;2024-02-23T12:28:04;5.10;;;1.40;;
75220;SDS011;63802;53.232;6.570;2024-02-23T12:30:30;3.25;;;1.23;;
75220;SDS011;63802;53.232;6.570;2024-02-23T12:33:03;4.80;;;1.30;;
75220;SDS011;63802;53.232;6.570;2024-02-23T12:35:32;8.45;;;1.50;;
75220;SDS011;63802;53.232;6.570;2024-02-23T12:37:59;5.72;;;1.20;;
75220;SDS011;63802;53.232;6.570;2024-02-23T12:40:25;4.55;;;1.55;;
75220;SDS011;63802;53.232;6.570;2024-02-23T12:42:50;3.78;;;1.50;;
75220;SDS011;63802;53.232;6.570;2024-02-23T12:45:16;5.45;;;1.77;;
75220;SDS011;63802;53.232;6.570;2024-02-23T12:47:41;4.63;;;1.67;;
75220;SDS011;63802;53.232;6.570;2024-02-23T12:50:07;2.28;;;1.30;;
75220;SDS011;63802;53.232;6.570;2024-02-23T12:52:36;9.63;;;1.42;;
75220;SDS011;63802;53.232;6.570;2024-02-23T12:55:02;2.65;;;1.33;;
75220;SDS011;63802;53.232;6.570;2024-02-23T12:57:28;1.85;;;1.15;;
75220;SDS011;63802;53.232;6.570;2024-02-23T12:59:53;1.75;;;1.17;;
75220;SDS011;63802;53.232;6.570;2024-02-23T13:02:20;9.70;;;1.60;;
75220;SDS011;63802;53.232;6.570;2024-02-23T13:04:55;2.90;;;1.05;;
75220;SDS011;63802;53.232;6.570;2024-02-23T13:07:20;6.95;;;1.48;;
75220;SDS011;63802;53.232;6.570;2024-02-23T13:09:46;7.20;;;1.77;;
75220;SDS011;63802;53.232;6.570;2024-02-23T13:12:11;3.38;;;1.40;;
75220;SDS011;63802;53.232;6.570;2024-02-23T13:14:37;4.38;;;1.70;;
75220;SDS011;63802;53.232;6.570;2024-02-23T13:17:02;2.97;;;1.40;;
75220;SDS011;63802;53.232;6.570;2024-02-23T13:19:28;5.95;;;1.40;;
75220;SDS011;63802;53.232;6.570;2024-02-23T13:21:54;2.47;;;1.20;;
75220;SDS011;63802;53.232;6.570;2024-02-23T13:24:19;2.70;;;1.33;;
75220;SDS011;63802;53.232;6.570;2024-02-23T13:26:45;8.18;;;1.83;;
75220;SDS011;63802;53.232;6.570;2024-02-23T13:29:11;3.85;;;1.40;;
75220;SDS011;63802;53.232;6.570;2024-02-23T13:31:36;4.75;;;1.70;;
75220;SDS011;63802;53.232;6.570;2024-02-23T13:34:03;2.70;;;1.27;;
75220;SDS011;63802;53.232;6.570;2024-02-23T13:36:29;6.03;;;1.70;;
75220;SDS011;63802;53.232;6.570;2024-02-23T13:38:54;3.50;;;1.40;;
75220;SDS011;63802;53.232;6.570;2024-02-23T13:41:20;2.67;;;1.60;;
75220;SDS011;63802;53.232;6.570;2024-02-23T13:43:45;5.43;;;1.48;;
75220;SDS011;63802;53.232;6.570;2024-02-23T13:46:11;3.47;;;1.60;;
75220;SDS011;63802;53.232;6.570;2024-02-23T13:48:36;3.35;;;1.45;;
75220;SDS011;63802;53.232;6.570;2024-02-23T13:51:02;2.67;;;1.60;;
75220;SDS011;63802;53.232;6.570;2024-02-23T13:53:30;3.92;;;1.20;;
75220;SDS011;63802;53.232;6.570;2024-02-23T13:55:56;3.25;;;1.77;;
75220;SDS011;63802;53.232;6.570;2024-02-23T13:58:21;2.58;;;1.70;;
75220;SDS011;63802;53.232;6.570;2024-02-23T14:00:47;3.25;;;1.40;;
75220;SDS011;63802;53.232;6.570;2024-02-23T14:03:15;4.15;;;1.65;;
75220;SDS011;63802;53.232;6.570;2024-02-23T14:08:10;5.80;;;2.75;;
75220;SDS011;63802;53.232;6.570;2024-02-23T14:10:35;3.13;;;1.50;;
75220;SDS011;63802;53.232;6.570;2024-02-23T14:13:01;4.97;;;2.13;;
75220;SDS011;63802;53.232;6.570;2024-02-23T14:15:30;2.55;;;1.52;;
75220;SDS011;63802;53.232;6.570;2024-02-23T14:17:55;3.42;;;1.70;;
75220;SDS011;63802;53.232;6.570;2024-02-23T14:20:20;4.20;;;1.92;;
75220;SDS011;63802;53.232;6.570;2024-02-23T14:22:46;4.70;;;1.80;;
75220;SDS011;63802;53.232;6.570;2024-02-23T14:25:12;5.97;;;1.75;;
75220;SDS011;63802;53.232;6.570;2024-02-23T14:27:37;4.55;;;1.65;;
75220;SDS011;63802;53.232;6.570;2024-02-23T14:30:02;6.05;;;1.88;;
75220;SDS011;63802;53.232;6.570;2024-02-23T14:32:29;5.55;;;1.70;;
75220;SDS011;63802;53.232;6.570;2024-02-23T14:34:54;4.28;;;1.73;;
75220;SDS011;63802;53.232;6.570;2024-02-23T14:37:20;6.05;;;1.77;;
75220;SDS011;63802;53.232;6.570;2024-02-23T14:39:45;5.97;;;1.50;;
75220;SDS011;63802;53.232;6.570;2024-02-23T14:42:11;2.85;;;1.77;;
75220;SDS011;63802;53.232;6.570;2024-02-23T14:44:36;3.40;;;1.40;;
75220;SDS011;63802;53.232;6.570;2024-02-23T14:47:03;8.15;;;1.80;;
75220;SDS011;63802;53.232;6.570;2024-02-23T14:49:30;3.83;;;1.63;;
75220;SDS011;63802;53.232;6.570;2024-02-23T14:51:56;6.03;;;1.73;;